Time;durP1;ratioP1;P1;durP2;ratioP2;P2;SDS_P1;SDS_P2;PMS_P1;PMS_P2;Temp;Humidity;BMP_temperature;BMP_pressure;BME280_temperature;BME280_humidity;BME280_pressure;Samples;Min_cycle;Max_cycle;Signal;HPM_P1;HPM_P2
2022/04/13 00:01:56;;;;;;;7.13;2.77;;;;;;;16.29;49.19;98448.00;7005438;28;20225;-78
2022/04/13 00:05:17;;;;;;;3.73;2.83;;;;;;;16.46;48.66;98442.56;7005621;28;20230;-78
2022/04/13 00:08:40;;;;;;;2.77;2.47;;;;;;;16.22;49.15;98425.59;7005124;28;20229;-77
2022/04/13 00:12:03;;;;;;;3.80;2.60;;;;;;;16.20;49.52;98438.63;7005240;28;20305;-77
2022/04/13 00:15:26;;;;;;;3.30;2.93;;;;;;;16.01;49.63;98436.41;7005484;28;20202;-77
2022/04/13 00:18:48;;;;;;;2.50;2.30;;;;;;;16.46;48.55;98445.28;7004248;28;20226;-77
2022/04/13 00:22:09;;;;;;;3.13;2.47;;;;;;;16.42;48.47;98433.25;7005226;28;20386;-77
2022/04/13 00:25:31;;;;;;;3.13;2.73;;;;;;;16.29;48.96;98444.47;7005241;28;20198;-76
2022/04/13 00:28:52;;;;;;;3.03;2.53;;;;;;;16.47;48.75;98433.31;7004766;28;20622;-77
2022/04/13 00:32:15;;;;;;;3.33;2.60;;;;;;;16.56;48.27;98439.97;7005308;28;20240;-77
2022/04/13 00:35:37;;;;;;;4.20;2.13;;;;;;;16.66;48.10;98449.09;7005024;28;20224;-77
2022/04/13 00:38:59;;;;;;;6.97;2.50;;;;;;;16.76;47.91;98449.22;7005102;28;20316;-77
2022/04/13 00:42:20;;;;;;;3.57;2.80;;;;;;;16.52;48.42;98447.81;7004002;28;20300;-77
2022/04/13 00:45:44;;;;;;;5.97;2.57;;;;;;;16.63;48.26;98448.78;7012763;28;20738;-77
2022/04/13 00:49:07;;;;;;;3.37;2.30;;;;;;;16.65;47.95;98441.19;7017586;28;20224;-76
2022/04/13 00:52:30;;;;;;;3.30;2.50;;;;;;;16.54;48.10;98450.28;7013313;28;20206;-77
2022/04/13 00:55:55;;;;;;;2.63;2.33;;;;;;;16.67;47.59;98437.13;7004123;28;20290;-76
2022/04/13 00:59:17;;;;;;;3.77;2.37;;;;;;;16.34;48.60;98439.09;7004038;28;20233;-77
2022/04/13 01:02:39;;;;;;;4.27;2.70;;;;;;;15.86;49.96;98460.66;7008330;28;20249;-77
2022/04/13 01:06:03;;;;;;;3.40;2.60;;;;;;;15.81;49.89;98453.22;7002563;28;20210;-76
2022/04/13 01:09:25;;;;;;;4.50;2.60;;;;;;;16.17;49.18;98451.91;7003904;28;20233;-77
2022/04/13 01:12:46;;;;;;;4.97;2.67;;;;;;;16.29;48.77;98448.00;7004537;28;20216;-76
2022/04/13 01:16:08;;;;;;;3.57;2.47;;;;;;;16.46;48.27;98458.91;7002826;28;20352;-77
2022/04/13 01:19:32;;;;;;;2.47;2.27;;;;;;;16.54;48.11;98461.16;7003851;28;20238;-78
2022/04/13 01:22:54;;;;;;;3.97;2.87;;;;;;;16.37;48.69;98463.06;7003868;28;20250;-78
2022/04/13 01:26:16;;;;;;;3.77;2.50;;;;;;;16.40;48.20;98460.69;7002944;28;20239;-77
2022/04/13 01:29:38;;;;;;;4.47;2.63;;;;;;;16.42;48.06;98458.56;7003366;28;20234;-78
2022/04/13 01:33:00;;;;;;;5.17;3.00;;;;;;;16.37;47.98;98444.03;7002575;28;20294;-78
2022/04/13 01:36:21;;;;;;;3.93;2.73;;;;;;;16.02;48.78;98429.91;7002052;28;20267;-77
2022/04/13 01:39:44;;;;;;;4.27;2.60;;;;;;;16.06;49.06;98448.22;7001937;28;20326;-78
2022/04/13 01:43:06;;;;;;;2.93;2.67;;;;;;;16.16;48.51;98451.06;7002512;28;20227;-77
2022/04/13 01:46:28;;;;;;;2.60;2.40;;;;;;;16.11;47.85;98447.47;7002392;28;20750;-76
2022/04/13 01:49:49;;;;;;;4.03;2.50;;;;;;;16.02;48.00;98449.78;7002799;28;20316;-77
2022/04/13 01:53:11;;;;;;;4.83;2.83;;;;;;;15.70;48.61;98456.03;7002336;28;20665;-78
2022/04/13 01:56:33;;;;;;;2.67;2.47;;;;;;;16.01;47.02;98456.28;7001911;28;20231;-76
2022/04/13 01:59:55;;;;;;;3.27;2.70;;;;;;;16.17;46.55;98460.88;7002816;28;20276;-78
2022/04/13 02:03:18;;;;;;;3.70;2.37;;;;;;;16.07;46.89;98468.06;7002431;28;20257;-78
2022/04/13 02:06:39;;;;;;;4.10;2.93;;;;;;;15.91;47.48;98472.44;7002283;28;20270;-78
2022/04/13 02:10:01;;;;;;;3.80;2.57;;;;;;;15.94;47.81;98482.00;7002713;28;20239;-77
2022/04/13 02:13:24;;;;;;;3.17;2.37;;;;;;;16.16;47.36;98464.66;7002437;28;20203;-78
2022/04/13 02:16:46;;;;;;;2.60;2.40;;;;;;;15.99;47.04;98473.91;7001386;28;20213;-78
2022/04/13 02:20:09;;;;;;;3.03;2.60;;;;;;;15.61;48.79;98465.63;7002288;28;20247;-78
2022/04/13 02:23:31;;;;;;;2.57;2.37;;;;;;;15.78;48.47;98486.34;7001920;28;20305;-77
2022/04/13 02:26:52;;;;;;;5.23;2.90;;;;;;;15.16;49.96;98489.22;7002035;28;20283;-78
2022/04/13 02:30:16;;;;;;;3.10;2.67;;;;;;;15.50;48.98;98504.56;7002803;28;20272;-78
2022/04/13 02:33:37;;;;;;;2.87;2.57;;;;;;;15.73;48.26;98497.13;7002358;28;20222;-77
2022/04/13 02:36:59;;;;;;;4.00;2.50;;;;;;;15.76;48.30;98510.22;7001867;28;20202;-78
2022/04/13 02:40:21;;;;;;;3.00;2.70;;;;;;;15.92;47.75;98503.16;7001252;28;20232;-78
2022/04/13 02:43:43;;;;;;;3.67;2.80;;;;;;;15.52;48.84;98508.69;7007667;28;20216;-78
2022/04/13 02:47:06;;;;;;;4.27;2.70;;;;;;;15.53;48.80;98504.09;7006942;28;20207;-78
2022/04/13 02:50:28;;;;;;;2.70;2.50;;;;;;;15.79;47.97;98519.78;7007395;28;20320;-77
2022/04/13 02:53:49;;;;;;;4.37;2.53;;;;;;;15.31;49.33;98513.94;7006275;28;20253;-77
2022/04/13 02:57:11;;;;;;;3.60;2.47;;;;;;;14.84;50.90;98517.88;7005872;28;20256;-76
2022/04/13 03:00:32;;;;;;;5.83;2.53;;;;;;;15.07;50.06;98520.53;7006365;28;20235;-76
2022/04/13 03:03:55;;;;;;;3.70;2.40;;;;;;;14.83;51.01;98529.78;7006357;28;20378;-75
2022/04/13 03:07:18;;;;;;;3.60;2.83;;;;;;;14.78;51.20;98524.25;7006325;28;20207;-77
2022/04/13 03:10:39;;;;;;;4.80;2.80;;;;;;;14.75;51.43;98520.13;7006193;28;20322;-77
2022/04/13 03:14:01;;;;;;;2.67;2.47;;;;;;;15.05;49.90;98518.03;7005944;28;20199;-77
2022/04/13 03:17:23;;;;;;;4.03;2.70;;;;;;;14.71;50.69;98504.56;7005762;28;20251;-76
2022/04/13 03:20:46;;;;;;;3.50;2.80;;;;;;;14.31;51.34;98522.63;7005681;28;20221;-77
2022/04/13 03:24:08;;;;;;;4.57;3.20;;;;;;;13.95;52.86;98522.81;7005683;28;20232;-76
2022/04/13 03:27:29;;;;;;;6.43;2.57;;;;;;;14.23;52.26;98529.22;7004904;28;20206;-76
2022/04/13 03:30:52;;;;;;;2.73;2.50;;;;;;;14.44;51.31;98515.09;7005366;28;20234;-77
2022/04/13 03:34:14;;;;;;;4.10;2.83;;;;;;;14.63;50.77;98529.34;7005600;28;20798;-76
2022/04/13 03:37:37;;;;;;;3.80;2.80;;;;;;;14.34;50.21;98485.00;7004949;28;20215;-76
2022/04/13 03:40:58;;;;;;;3.73;2.40;;;;;;;13.98;52.08;98503.38;7003718;28;20254;-76
2022/04/13 03:44:20;;;;;;;3.97;2.80;;;;;;;14.09;51.35;98492.53;7005642;28;20426;-76
2022/04/13 03:47:42;;;;;;;4.07;2.80;;;;;;;13.82;51.70;98502.19;7004557;28;20200;-76
2022/04/13 03:51:04;;;;;;;5.53;3.00;;;;;;;13.92;51.60;98507.03;7004679;28;20228;-77
2022/04/13 03:54:27;;;;;;;3.17;2.60;;;;;;;14.15;50.89;98488.88;7003421;28;20709;-77
2022/04/13 03:57:49;;;;;;;4.47;2.90;;;;;;;14.29;50.29;98487.59;7004032;28;20671;-77
2022/04/13 04:01:11;;;;;;;2.83;2.63;;;;;;;14.65;49.17;98500.09;7004447;28;20251;-77
2022/04/13 04:04:33;;;;;;;3.13;2.70;;;;;;;14.68;48.73;98491.47;7013379;28;20250;-77
2022/04/13 04:07:54;;;;;;;3.40;3.00;;;;;;;14.54;49.23;98506.34;7030955;28;20268;-76
2022/04/13 04:11:17;;;;;;;4.20;2.93;;;;;;;14.67;49.25;98523.22;7031021;28;20597;-77
2022/04/13 04:14:40;;;;;;;4.57;2.90;;;;;;;14.30;49.46;98489.28;7030437;28;20213;-77
2022/04/13 04:18:01;;;;;;;3.30;3.00;;;;;;;14.19;49.37;98459.44;7031604;28;20211;-77
2022/04/13 04:21:23;;;;;;;5.63;2.67;;;;;;;14.62;49.20;98525.81;7030927;28;20210;-77
2022/04/13 04:24:44;;;;;;;3.20;2.90;;;;;;;14.80;48.57;98519.44;7032516;28;20215;-78
2022/04/13 04:28:10;;;;;;;3.37;3.03;;;;;;;13.91;51.29;98529.72;7033414;28;20214;-76
2022/04/13 04:35:11;;;;;;;3.13;2.87;;;;;;;13.91;51.52;98522.44;7005530;28;20183;-77
2022/04/13 04:38:33;;;;;;;3.17;2.87;;;;;;;14.18;50.58;98526.38;7004868;28;20237;-77
2022/04/13 04:41:54;;;;;;;6.80;3.33;;;;;;;14.12;51.09;98531.91;7004188;28;20201;-77
2022/04/13 04:45:19;;;;;;;5.27;3.47;;;;;;;13.97;51.11;98518.78;7004745;28;20243;-76
2022/04/13 04:48:42;;;;;;;3.47;2.90;;;;;;;13.84;51.17;98510.88;7005891;28;20674;-76
2022/04/13 04:52:04;;;;;;;4.50;3.20;;;;;;;13.95;50.95;98536.34;7031795;28;20607;-77
2022/04/13 04:55:26;;;;;;;3.70;3.40;;;;;;;14.07;50.70;98532.63;7033892;28;20203;-78
2022/04/13 04:58:48;;;;;;;6.27;3.30;;;;;;;14.03;50.82;98536.00;7033779;28;20223;-77
2022/04/13 05:02:11;;;;;;;3.97;2.90;;;;;;;14.12;50.52;98537.31;7034337;28;20293;-77
2022/04/13 05:05:35;;;;;;;4.87;3.57;;;;;;;14.25;50.03;98534.41;7017156;28;20251;-76
2022/04/13 05:08:56;;;;;;;4.20;3.67;;;;;;;14.44;49.39;98530.53;7025386;28;20225;-76
2022/04/13 05:12:18;;;;;;;5.47;3.87;;;;;;;14.42;49.70;98529.94;7020455;28;20292;-79
2022/04/13 05:15:42;;;;;;;3.67;3.30;;;;;;;14.53;49.30;98540.81;7023691;28;20226;-77
2022/04/13 05:19:06;;;;;;;4.07;3.53;;;;;;;14.66;49.05;98542.44;7028950;28;20236;-77
2022/04/13 05:22:27;;;;;;;5.17;3.67;;;;;;;13.94;50.91;98543.69;7018718;28;20284;-76
2022/04/13 05:25:49;;;;;;;4.93;3.63;;;;;;;13.77;51.40;98541.84;7027935;28;20220;-77
2022/04/13 05:29:11;;;;;;;4.83;4.00;;;;;;;14.42;50.43;98530.78;7031446;28;20223;-77
2022/04/13 05:32:33;;;;;;;3.90;3.00;;;;;;;13.97;50.96;98539.66;7031608;28;20196;-77
2022/04/13 05:35:55;;;;;;;5.90;3.37;;;;;;;14.58;49.75;98550.94;7029667;28;20208;-77
2022/04/13 05:39:17;;;;;;;3.20;3.00;;;;;;;14.28;50.77;98559.19;7031443;28;20251;-77
2022/04/13 05:42:39;;;;;;;6.60;3.40;;;;;;;14.83;49.50;98555.06;7031973;28;20210;-78
2022/04/13 05:46:00;;;;;;;4.30;3.50;;;;;;;15.30;48.34;98572.06;7033070;28;20657;-77
2022/04/13 05:49:22;;;;;;;5.50;3.30;;;;;;;15.55;48.08;98568.00;7033616;28;20228;-77
2022/04/13 05:52:45;;;;;;;4.00;3.70;;;;;;;15.86;47.87;98558.53;7033714;28;20205;-78
2022/04/13 05:56:07;;;;;;;3.57;3.27;;;;;;;16.08;46.93;98559.44;7009181;28;20664;-78
2022/04/13 05:59:29;;;;;;;4.83;3.77;;;;;;;16.13;47.25;98564.97;7005441;28;20426;-78
2022/04/13 06:02:50;;;;;;;4.03;3.63;;;;;;;16.37;47.25;98561.84;7005056;28;20215;-77
2022/04/13 06:06:12;;;;;;;4.20;3.70;;;;;;;16.65;45.96;98563.69;7003709;28;20257;-78
2022/04/13 06:09:35;;;;;;;5.53;3.77;;;;;;;16.81;45.89;98576.44;7004905;28;20360;-78
2022/04/13 06:12:56;;;;;;;6.37;3.50;;;;;;;17.02;45.82;98565.59;7005145;28;20193;-78
2022/04/13 06:16:18;;;;;;;7.77;3.93;;;;;;;17.30;45.58;98570.88;7005745;28;20713;-78
2022/04/13 06:19:40;;;;;;;6.27;4.37;;;;;;;17.63;44.53;98573.47;7008614;28;20236;-77
2022/04/13 06:23:01;;;;;;;4.67;3.57;;;;;;;17.71;44.28;98569.47;7010862;28;20228;-78
2022/04/13 06:26:24;;;;;;;4.67;3.80;;;;;;;18.08;43.25;98573.13;7009061;28;20321;-78
2022/04/13 06:29:46;;;;;;;6.97;3.90;;;;;;;17.82;43.91;98577.50;7010193;28;20225;-78
2022/04/13 06:33:07;;;;;;;4.67;3.73;;;;;;;17.90;43.53;98581.66;7010008;28;20236;-78
2022/04/13 06:36:29;;;;;;;6.00;3.80;;;;;;;18.19;43.51;98602.16;7009912;28;20269;-78
2022/04/13 06:39:51;;;;;;;4.17;3.77;;;;;;;18.97;41.89;98600.34;7010306;28;20721;-78
2022/04/13 06:43:14;;;;;;;4.57;3.70;;;;;;;19.50;40.97;98591.94;7010386;28;20202;-78
2022/04/13 06:46:36;;;;;;;4.83;3.37;;;;;;;19.11;41.24;98600.72;7009414;28;20227;-78
2022/04/13 06:49:58;;;;;;;5.20;3.50;;;;;;;19.22;41.00;98592.34;7010169;28;20226;-78
2022/04/13 06:53:19;;;;;;;7.00;3.60;;;;;;;19.13;41.24;98606.75;7013501;28;20228;-78
2022/04/13 06:56:41;;;;;;;4.63;3.40;;;;;;;19.32;41.10;98589.66;7035523;28;20214;-77
2022/04/13 07:00:05;;;;;;;5.97;3.50;;;;;;;19.94;40.00;98597.81;7027389;28;20222;-78
2022/04/13 07:03:26;;;;;;;4.47;3.50;;;;;;;20.56;39.08;98593.00;7015561;28;20233;-78
2022/04/13 07:06:48;;;;;;;4.47;3.60;;;;;;;21.30;37.37;98601.16;7026634;28;20275;-79
2022/04/13 07:10:09;;;;;;;6.07;3.37;;;;;;;21.28;37.74;98575.94;7027264;28;20815;-79
2022/04/13 07:13:32;;;;;;;4.30;3.10;;;;;;;21.67;37.57;98598.03;7027091;28;20221;-78
2022/04/13 07:16:55;;;;;;;5.27;3.40;;;;;;;21.72;37.61;98606.25;7025322;28;20193;-78
2022/04/13 07:20:17;;;;;;;9.20;4.00;;;;;;;22.11;37.11;98596.13;7024655;28;20284;-78
2022/04/13 07:23:39;;;;;;;7.07;4.80;;;;;;;22.52;36.82;98594.78;7012693;28;20192;-78
2022/04/13 07:27:00;;;;;;;11.63;4.73;;;;;;;23.14;35.03;98587.31;7008313;28;20296;-78
2022/04/13 07:30:22;;;;;;;9.37;4.10;;;;;;;23.09;34.93;98595.66;7008709;28;20583;-79
2022/04/13 07:33:45;;;;;;;5.57;3.63;;;;;;;23.27;35.56;98589.44;7008796;28;20190;-78
2022/04/13 07:37:06;;;;;;;5.37;4.30;;;;;;;23.73;34.31;98597.97;7026687;28;20248;-78
2022/04/13 07:40:28;;;;;;;6.47;4.10;;;;;;;23.48;33.67;98579.81;7028215;28;20882;-79
2022/04/13 07:43:50;;;;;;;4.67;3.40;;;;;;;23.91;33.40;98567.75;7017372;28;20198;-78
2022/04/13 07:47:14;;;;;;;3.50;3.20;;;;;;;23.74;33.74;98605.94;7031777;28;20250;-78
2022/04/13 07:50:37;;;;;;;3.20;2.90;;;;;;;23.28;33.72;98582.81;7022794;28;20244;-77
2022/04/13 07:54:00;;;;;;;5.33;3.40;;;;;;;23.78;33.62;98606.97;7028599;28;20670;-78
2022/04/13 07:57:21;;;;;;;4.83;3.10;;;;;;;23.71;33.33;98597.47;7031324;28;20206;-78
2022/04/13 08:00:43;;;;;;;5.40;3.30;;;;;;;23.22;34.27;98622.50;7020043;28;20848;-77
2022/04/13 08:04:05;;;;;;;6.50;3.60;;;;;;;22.76;35.05;98626.75;7005052;28;20212;-77
2022/04/13 08:07:28;;;;;;;4.77;2.93;;;;;;;23.61;34.41;98617.66;7030990;28;20223;-77
2022/04/13 08:10:50;;;;;;;6.40;3.27;;;;;;;24.00;33.26;98606.44;7029912;28;20232;-76
2022/04/13 08:14:11;;;;;;;4.47;2.90;;;;;;;24.24;33.38;98612.75;7033148;28;20765;-77
2022/04/13 08:17:33;;;;;;;4.10;3.10;;;;;;;24.33;32.71;98609.00;7006397;28;20234;-78
2022/04/13 08:20:54;;;;;;;4.23;3.33;;;;;;;23.18;33.94;98624.19;7004448;28;20311;-77
2022/04/13 08:24:18;;;;;;;4.83;3.17;;;;;;;24.14;32.97;98624.69;7004586;28;20203;-78
2022/04/13 08:27:40;;;;;;;3.20;2.90;;;;;;;24.92;32.39;98617.47;7004202;28;20216;-78
2022/04/13 08:31:04;;;;;;;3.77;3.03;;;;;;;25.54;31.94;98608.59;7005132;28;20232;-77
2022/04/13 08:34:25;;;;;;;4.23;3.00;;;;;;;24.92;32.39;98625.72;7004592;28;20247;-78
2022/04/13 08:37:47;;;;;;;5.03;3.13;;;;;;;25.51;31.36;98583.53;7004289;28;20609;-78
2022/04/13 08:41:14;;;;;;;3.43;3.10;;;;;;;25.58;30.82;98611.53;7004626;28;20638;-78
2022/04/13 08:44:37;;;;;;;4.37;2.73;;;;;;;25.13;32.09;98635.28;7004832;28;20211;-77
2022/04/13 08:48:00;;;;;;;5.03;3.20;;;;;;;25.23;30.82;98632.34;7003903;28;20206;-76
2022/04/13 08:51:23;;;;;;;5.80;2.50;;;;;;;25.27;28.82;98635.34;7004103;28;20232;-78
2022/04/13 08:54:56;;;;;;;3.07;2.40;;;;;;;26.00;28.26;98623.13;7004349;28;20688;-77
2022/04/13 08:58:26;;;;;;;4.50;2.73;;;;;;;25.60;27.68;98614.84;7004426;28;20194;-79
2022/04/13 09:01:53;;;;;;;3.50;2.60;;;;;;;25.73;28.09;98589.97;7004186;28;20240;-77
2022/04/13 09:05:17;;;;;;;4.37;2.40;;;;;;;25.85;27.61;98611.56;7003779;28;20556;-77
2022/04/13 09:08:45;;;;;;;3.00;2.70;;;;;;;25.94;27.65;98621.59;7003399;28;20809;-77
2022/04/13 09:12:09;;;;;;;4.20;2.70;;;;;;;25.18;28.53;98626.91;7003677;28;20274;-77
2022/04/13 09:15:34;;;;;;;3.37;2.97;;;;;;;25.95;28.40;98592.84;7012683;28;20205;-77
2022/04/13 09:18:55;;;;;;;8.33;3.20;;;;;;;26.72;28.40;98626.75;7032161;28;20224;-77
2022/04/13 09:22:18;;;;;;;4.10;2.70;;;;;;;26.72;27.48;98619.28;7032129;28;20193;-77
2022/04/13 09:25:41;;;;;;;6.90;2.97;;;;;;;26.54;27.75;98625.78;7030779;28;20370;-77
2022/04/13 09:29:03;;;;;;;4.40;2.70;;;;;;;26.93;26.97;98623.19;7030080;28;20253;-77
2022/04/13 09:32:26;;;;;;;3.70;2.80;;;;;;;26.92;27.11;98617.94;7014657;28;20211;-78
2022/04/13 09:35:48;;;;;;;5.17;2.63;;;;;;;26.42;27.33;98616.41;7003141;28;20198;-77
2022/04/13 09:39:11;;;;;;;4.20;2.97;;;;;;;26.29;27.57;98612.53;7003769;28;20270;-77
2022/04/13 09:42:33;;;;;;;6.17;2.90;;;;;;;27.08;27.15;98586.00;7005063;28;20211;-77
2022/04/13 09:45:57;;;;;;;5.00;2.73;;;;;;;27.80;25.84;98604.78;7003904;28;20266;-77
2022/04/13 09:49:22;;;;;;;3.23;2.47;;;;;;;27.12;26.67;98612.72;7012145;28;20224;-77
2022/04/13 09:52:43;;;;;;;3.83;2.97;;;;;;;27.00;27.21;98614.41;7007245;28;20223;-77
2022/04/13 09:56:05;;;;;;;3.27;2.90;;;;;;;26.97;27.53;98610.34;7006603;28;20208;-77
2022/04/13 09:59:28;;;;;;;3.20;2.63;;;;;;;27.50;26.96;98613.09;7040270;28;20208;-76
2022/04/13 10:02:50;;;;;;;3.03;2.43;;;;;;;28.27;26.61;98601.16;7032226;28;20205;-76
2022/04/13 10:06:26;;;;;;;6.73;2.90;;;;;;;26.97;28.36;98604.81;7023381;28;20677;-78
2022/04/13 10:09:48;;;;;;;5.97;2.97;;;;;;;27.51;28.08;98606.44;7018753;28;20275;-78
2022/04/13 10:13:10;;;;;;;7.33;2.90;;;;;;;28.69;26.81;98600.38;7020706;28;20236;-77
2022/04/13 10:16:35;;;;;;;6.93;3.80;;;;;;;28.79;26.61;98582.56;7003564;28;20199;-77
2022/04/13 10:19:57;;;;;;;5.80;3.17;;;;;;;28.87;26.43;98587.28;7022956;28;20230;-78
2022/04/13 10:23:20;;;;;;;5.87;3.47;;;;;;;28.27;27.38;98578.13;7014349;28;20195;-78
2022/04/13 10:26:42;;;;;;;4.60;2.83;;;;;;;27.90;28.88;98585.06;7005364;28;20688;-75
2022/04/13 10:30:07;;;;;;;5.07;3.00;;;;;;;28.28;26.94;98577.81;7004609;28;20224;-78
2022/04/13 10:33:29;;;;;;;4.90;2.80;;;;;;;28.24;27.67;98581.56;7014917;28;20360;-78
2022/04/13 10:36:51;;;;;;;4.47;3.00;;;;;;;27.64;27.48;98580.56;7016225;28;20630;-78
2022/04/13 10:40:14;;;;;;;4.13;3.00;;;;;;;28.12;27.49;98593.28;7004307;28;20262;-78
2022/04/13 10:43:36;;;;;;;5.77;3.20;;;;;;;28.43;27.04;98585.66;6977853;28;20290;-78
2022/04/13 10:47:02;;;;;;;5.63;2.60;;;;;;;28.62;26.51;98557.59;7030007;28;20312;-78
2022/04/13 10:50:30;;;;;;;6.47;3.17;;;;;;;29.04;26.39;98579.78;7028922;28;20231;-78
2022/04/13 10:53:57;;;;;;;5.03;2.47;;;;;;;28.65;25.87;98582.72;7003577;28;20216;-78
2022/04/13 10:57:22;;;;;;;6.77;2.63;;;;;;;28.40;26.23;98586.34;7002131;28;20211;-78
2022/04/13 11:00:46;;;;;;;6.83;2.53;;;;;;;28.36;26.15;98574.22;7002859;28;20265;-78
2022/04/13 11:04:08;;;;;;;4.90;2.40;;;;;;;28.73;25.36;98583.88;7006641;28;20563;-79
2022/04/13 11:07:31;;;;;;;8.47;2.60;;;;;;;28.67;25.50;98599.84;7007423;28;20223;-79
2022/04/13 11:10:53;;;;;;;7.00;2.93;;;;;;;28.44;25.89;98576.22;7007509;28;20234;-78
2022/04/13 11:14:19;;;;;;;5.77;2.90;;;;;;;28.57;26.24;98571.63;7008233;28;20207;-78
2022/04/13 11:17:42;;;;;;;7.07;3.07;;;;;;;28.57;27.46;98572.47;7007242;28;20204;-79
2022/04/13 11:21:08;;;;;;;8.30;2.83;;;;;;;28.84;26.46;98583.19;7006861;28;20234;-78
2022/04/13 11:24:33;;;;;;;2.67;2.30;;;;;;;28.80;26.47;98582.25;7007394;28;20194;-78
2022/04/13 11:27:55;;;;;;;4.07;2.53;;;;;;;28.78;26.29;98592.03;7006847;28;20223;-78
2022/04/13 11:31:18;;;;;;;3.23;2.30;;;;;;;28.76;26.01;98577.66;7007273;28;20241;-78
2022/04/13 11:34:45;;;;;;;4.60;2.67;;;;;;;28.32;27.66;98586.31;7007441;28;20211;-79
2022/04/13 11:38:08;;;;;;;5.90;2.83;;;;;;;28.77;26.95;98582.09;7007127;28;20201;-79
2022/04/13 11:41:29;;;;;;;4.83;2.77;;;;;;;29.03;27.32;98580.94;7007923;28;20223;-78
2022/04/13 11:44:53;;;;;;;3.10;2.50;;;;;;;29.49;26.39;98558.69;7007574;28;20219;-79
2022/04/13 11:48:32;;;;;;;7.33;3.10;;;;;;;29.35;26.57;98569.22;7006973;28;20227;-79
2022/04/13 11:51:56;;;;;;;5.40;2.90;;;;;;;28.80;26.58;98560.03;7009550;28;20269;-78
2022/04/13 11:55:19;;;;;;;6.07;2.90;;;;;;;29.38;26.19;98567.75;7035589;28;20216;-78
2022/04/13 11:58:44;;;;;;;7.67;3.57;;;;;;;29.41;25.58;98554.00;7034696;28;20219;-79
2022/04/13 12:02:07;;;;;;;5.07;2.60;;;;;;;28.09;27.49;98557.91;7035373;28;20235;-78
2022/04/13 12:05:31;;;;;;;5.03;2.87;;;;;;;29.18;26.74;98551.81;7035159;28;20233;-79
2022/04/13 12:08:55;;;;;;;7.40;2.77;;;;;;;29.69;26.00;98560.78;7035325;28;20552;-78
2022/04/13 12:12:18;;;;;;;5.30;2.83;;;;;;;29.45;26.68;98554.97;7035039;28;20226;-78
2022/04/13 12:15:45;;;;;;;7.20;2.63;;;;;;;29.19;26.31;98529.25;7033362;28;20258;-79
2022/04/13 12:19:08;;;;;;;3.60;2.80;;;;;;;29.56;25.63;98527.66;7033434;28;20226;-79
2022/04/13 12:22:35;;;;;;;9.67;2.67;;;;;;;30.19;25.11;98544.94;7033824;28;20207;-78
2022/04/13 12:25:57;;;;;;;4.53;2.73;;;;;;;29.90;25.22;98538.56;7034323;28;20212;-78
2022/04/13 12:29:20;;;;;;;3.67;2.47;;;;;;;30.30;24.71;98551.72;7034036;28;20232;-78
2022/04/13 12:32:45;;;;;;;6.50;2.57;;;;;;;29.73;25.39;98535.91;7033150;28;20219;-78
2022/04/13 12:36:08;;;;;;;5.53;2.43;;;;;;;29.30;26.35;98532.50;7032015;28;20199;-79
2022/04/13 12:39:32;;;;;;;4.00;2.37;;;;;;;29.86;25.77;98524.53;7032119;28;20233;-78
2022/04/13 12:42:54;;;;;;;5.83;2.53;;;;;;;29.93;24.78;98527.59;7032100;28;20209;-79
2022/04/13 12:46:17;;;;;;;5.83;2.30;;;;;;;29.48;25.86;98520.94;7031527;28;20239;-78
2022/04/13 12:49:38;;;;;;;6.00;2.50;;;;;;;29.49;25.50;98514.25;7032060;28;20231;-79
2022/04/13 12:53:00;;;;;;;3.50;2.40;;;;;;;29.58;25.99;98520.63;7014872;28;20210;-80
2022/04/13 12:56:25;;;;;;;9.53;2.77;;;;;;;30.38;24.10;98505.50;7003236;28;20273;-78
2022/04/13 12:59:46;;;;;;;8.17;2.83;;;;;;;29.97;25.40;98520.22;7004063;28;20232;-79
2022/04/13 13:03:08;;;;;;;5.77;2.50;;;;;;;30.47;24.63;98507.06;7004415;28;20267;-80
2022/04/13 13:06:32;;;;;;;9.50;2.90;;;;;;;29.84;25.17;98501.81;7010061;28;20249;-79
2022/04/13 13:09:55;;;;;;;5.33;2.80;;;;;;;30.57;24.43;98503.88;7031311;28;20234;-79
2022/04/13 13:13:19;;;;;;;3.67;2.30;;;;;;;30.27;24.88;98496.78;7031415;28;20188;-80
2022/04/13 13:16:42;;;;;;;6.23;2.63;;;;;;;30.68;24.35;98510.66;7031574;28;20214;-79
2022/04/13 13:20:09;;;;;;;4.77;2.33;;;;;;;30.99;22.70;98502.63;7028727;28;20696;-79
2022/04/13 13:23:32;;;;;;;3.47;2.27;;;;;;;30.31;24.37;98497.69;7020642;28;20191;-79
2022/04/13 13:26:53;;;;;;;4.33;2.37;;;;;;;30.10;24.35;98496.91;7030308;28;20227;-79
2022/04/13 13:30:18;;;;;;;5.43;2.40;;;;;;;29.89;25.08;98500.81;7031172;28;20320;-79
2022/04/13 13:33:52;;;;;;;6.20;2.60;;;;;;;30.14;24.77;98488.69;7025426;28;20294;-79
2022/04/13 13:37:28;;;;;;;4.40;2.27;;;;;;;30.02;24.07;98450.47;7001354;28;20196;-79
2022/04/13 13:40:50;;;;;;;6.23;2.67;;;;;;;30.32;24.69;98493.75;7003984;28;20263;-79
2022/04/13 13:44:23;;;;;;;5.63;2.27;;;;;;;29.65;25.11;98492.28;7003270;28;20593;-79
2022/04/13 13:47:46;;;;;;;3.33;2.50;;;;;;;30.06;nan;98484.78;7003409;28;20231;-79
2022/04/13 13:51:08;;;;;;;3.70;2.20;;;;;;;29.68;24.75;98488.84;7003749;28;20238;-79
2022/04/13 13:54:32;;;;;;;5.17;2.43;;;;;;;29.88;24.97;98497.19;7003437;28;20212;-79
2022/04/13 13:57:56;;;;;;;4.93;2.27;;;;;;;29.43;25.10;98489.78;7014308;28;20535;-79
2022/04/13 14:01:17;;;;;;;6.13;2.50;;;;;;;29.50;25.26;98453.94;7003251;28;20594;-79
2022/04/13 14:04:40;;;;;;;7.07;2.73;;;;;;;29.83;25.02;98482.69;7008399;28;20280;-79
2022/04/13 14:08:05;;;;;;;5.80;2.90;;;;;;;29.80;24.78;98472.25;7002254;28;20701;-79
2022/04/13 14:11:26;;;;;;;4.10;2.57;;;;;;;29.88;23.71;98474.97;7002810;28;20308;-79
2022/04/13 14:14:48;;;;;;;7.30;2.23;;;;;;;30.05;24.25;98472.06;7003056;28;20207;-79
2022/04/13 14:18:10;;;;;;;3.67;2.20;;;;;;;29.96;23.81;98457.38;7015940;28;20206;-79
2022/04/13 14:21:34;;;;;;;5.37;2.17;;;;;;;30.03;24.53;98471.59;7029781;28;20231;-79
2022/04/13 14:24:56;;;;;;;4.17;2.47;;;;;;;30.36;24.16;98454.97;7026010;28;20191;-79
2022/04/13 14:28:17;;;;;;;8.90;2.50;;;;;;;30.00;24.47;98463.91;7016566;28;20290;-79
2022/04/13 14:31:39;;;;;;;6.70;2.40;;;;;;;30.19;24.13;98449.56;7035639;28;20229;-79
2022/04/13 14:35:01;;;;;;;5.93;2.43;;;;;;;30.40;23.79;98464.25;7032092;28;20201;-79
2022/04/13 14:38:24;;;;;;;7.60;2.53;;;;;;;30.34;24.21;98454.47;7033812;28;20223;-80
2022/04/13 14:41:45;;;;;;;5.80;2.30;;;;;;;30.18;23.72;98457.09;7036358;28;20240;-79
2022/04/13 14:45:08;;;;;;;5.87;2.40;;;;;;;29.71;24.91;98460.38;7036275;28;20226;-79
2022/04/13 14:48:29;;;;;;;6.67;2.30;;;;;;;29.71;24.32;98469.53;7033837;28;20239;-79
2022/04/13 14:51:52;;;;;;;9.20;2.47;;;;;;;29.29;25.03;98470.56;7015296;28;20239;-79
2022/04/13 14:55:15;;;;;;;8.10;3.27;;;;;;;29.87;24.27;98464.16;7008632;28;20192;-78
2022/04/13 14:58:37;;;;;;;8.40;2.30;;;;;;;29.96;23.92;98440.72;7031406;28;20235;-79
2022/04/13 15:01:58;;;;;;;4.33;2.30;;;;;;;29.63;24.64;98469.56;7016939;28;20214;-79
2022/04/13 15:05:20;;;;;;;7.87;2.60;;;;;;;29.36;24.81;98442.28;7008584;28;20202;-79
2022/04/13 15:08:43;;;;;;;8.70;2.67;;;;;;;29.50;24.65;98468.66;7009661;28;20235;-78
2022/04/13 15:12:08;;;;;;;5.50;2.50;;;;;;;29.32;24.86;98455.19;7007845;28;20336;-79
2022/04/13 15:15:30;;;;;;;5.10;2.40;;;;;;;29.53;24.66;98472.72;7008363;28;20205;-78
2022/04/13 15:18:51;;;;;;;7.87;2.80;;;;;;;29.86;24.47;98466.16;7013232;28;20211;-80
2022/04/13 15:22:13;;;;;;;3.83;2.23;;;;;;;29.72;24.64;98462.81;7018190;28;20227;-79
2022/04/13 15:25:34;;;;;;;4.60;2.03;;;;;;;29.64;23.68;98454.53;7021524;28;20232;-79
2022/04/13 15:28:57;;;;;;;9.63;3.03;;;;;;;29.27;24.57;98458.16;7017395;28;20229;-79
2022/04/13 15:32:19;;;;;;;7.80;2.20;;;;;;;29.63;24.27;98458.47;7009041;28;20679;-80
2022/04/13 15:35:41;;;;;;;4.00;2.40;;;;;;;29.24;23.46;98454.06;7008620;28;20240;-80
2022/04/13 15:39:02;;;;;;;6.23;2.43;;;;;;;29.41;23.36;98462.31;7008861;28;20316;-79
2022/04/13 15:42:24;;;;;;;5.67;2.40;;;;;;;29.64;23.56;98449.78;7008639;28;20206;-78
2022/04/13 15:45:47;;;;;;;8.90;2.70;;;;;;;29.75;22.92;98456.59;7007926;28;20208;-80
2022/04/13 15:49:10;;;;;;;7.57;2.23;;;;;;;29.82;23.20;98470.75;7008083;28;20246;-80
2022/04/13 15:52:33;;;;;;;8.20;2.70;;;;;;;29.43;22.81;98481.44;7010756;28;20202;-80
2022/04/13 15:55:55;;;;;;;8.27;2.77;;;;;;;29.37;22.18;98477.22;7045015;28;20202;-79
2022/04/13 15:59:17;;;;;;;4.87;2.77;;;;;;;29.24;22.82;98487.41;7046837;28;20218;-79